sensor_id;sensor_type;location;lat;lon;timestamp;temperature;humidity
16247;DHT22;8231;50.866;7.944;2024-02-15T00:00:06;10.60;99.90
16247;DHT22;8231;50.866;7.944;2024-02-15T00:02:40;10.60;99.90
16247;DHT22;8231;50.866;7.944;2024-02-15T00:05:28;10.60;99.90
16247;DHT22;8231;50.866;7.944;2024-02-15T00:07:57;10.60;99.90
16247;DHT22;8231;50.866;7.944;2024-02-15T00:10:26;10.80;99.90
16247;DHT22;8231;50.866;7.944;2024-02-15T00:12:55;10.60;99.90
16247;DHT22;8231;50.866;7.944;2024-02-15T00:15:23;10.60;99.90
16247;DHT22;8231;50.866;7.944;2024-02-15T00:17:53;10.60;99.90
16247;DHT22;8231;50.866;7.944;2024-02-15T00:20:21;10.60;99.90
16247;DHT22;8231;50.866;7.944;2024-02-15T00:22:50;10.60;99.90
16247;DHT22;8231;50.866;7.944;2024-02-15T00:25:19;10.60;99.90
16247;DHT22;8231;50.866;7.944;2024-02-15T00:27:47;10.60;99.90
16247;DHT22;8231;50.866;7.944;2024-02-15T00:30:15;10.60;99.90
16247;DHT22;8231;50.866;7.944;2024-02-15T00:32:44;10.60;99.90
16247;DHT22;8231;50.866;7.944;2024-02-15T00:35:15;10.60;99.90
16247;DHT22;8231;50.866;7.944;2024-02-15T00:37:44;10.70;99.90
16247;DHT22;8231;50.866;7.944;2024-02-15T00:40:13;10.60;99.90
16247;DHT22;8231;50.866;7.944;2024-02-15T00:42:41;10.70;99.90
16247;DHT22;8231;50.866;7.944;2024-02-15T00:45:09;10.90;99.90
16247;DHT22;8231;50.866;7.944;2024-02-15T00:47:38;10.60;99.90
16247;DHT22;8231;50.866;7.944;2024-02-15T00:50:09;10.60;99.90
16247;DHT22;8231;50.866;7.944;2024-02-15T00:52:39;10.60;99.90
16247;DHT22;8231;50.866;7.944;2024-02-15T00:55:08;10.90;99.90
16247;DHT22;8231;50.866;7.944;2024-02-15T00:57:36;10.60;99.90
16247;DHT22;8231;50.866;7.944;2024-02-15T01:00:05;10.60;99.90
16247;DHT22;8231;50.866;7.944;2024-02-15T01:02:36;10.60;99.90
16247;DHT22;8231;50.866;7.944;2024-02-15T01:05:05;10.60;99.90
16247;DHT22;8231;50.866;7.944;2024-02-15T01:07:34;10.60;99.90
16247;DHT22;8231;50.866;7.944;2024-02-15T01:10:05;10.60;99.90
16247;DHT22;8231;50.866;7.944;2024-02-15T01:12:34;10.60;99.90
16247;DHT22;8231;50.866;7.944;2024-02-15T01:15:03;10.60;99.90
16247;DHT22;8231;50.866;7.944;2024-02-15T01:17:32;10.60;99.90
16247;DHT22;8231;50.866;7.944;2024-02-15T01:20:01;10.60;99.90
16247;DHT22;8231;50.866;7.944;2024-02-15T01:22:30;10.60;99.90
16247;DHT22;8231;50.866;7.944;2024-02-15T01:24:58;10.60;99.90
16247;DHT22;8231;50.866;7.944;2024-02-15T01:27:28;10.60;99.90
16247;DHT22;8231;50.866;7.944;2024-02-15T01:29:57;10.60;99.90
16247;DHT22;8231;50.866;7.944;2024-02-15T01:32:25;10.60;99.90
16247;DHT22;8231;50.866;7.944;2024-02-15T01:34:54;10.60;99.90
16247;DHT22;8231;50.866;7.944;2024-02-15T01:37:23;10.60;99.90
16247;DHT22;8231;50.866;7.944;2024-02-15T01:39:51;10.60;99.90
16247;DHT22;8231;50.866;7.944;2024-02-15T01:42:20;10.60;99.90
16247;DHT22;8231;50.866;7.944;2024-02-15T01:44:49;10.60;99.90
16247;DHT22;8231;50.866;7.944;2024-02-15T01:47:20;10.60;99.90
16247;DHT22;8231;50.866;7.944;2024-02-15T01:49:50;10.60;99.90
16247;DHT22;8231;50.866;7.944;2024-02-15T01:52:21;10.60;99.90
16247;DHT22;8231;50.866;7.944;2024-02-15T01:54:50;10.60;99.90
16247;DHT22;8231;50.866;7.944;2024-02-15T01:57:19;10.60;99.90
16247;DHT22;8231;50.866;7.944;2024-02-15T01:59:51;10.90;99.90
16247;DHT22;8231;50.866;7.944;2024-02-15T02:02:22;10.60;99.90
16247;DHT22;8231;50.866;7.944;2024-02-15T02:04:53;10.60;99.90
16247;DHT22;8231;50.866;7.944;2024-02-15T02:07:22;10.60;99.90
16247;DHT22;8231;50.866;7.944;2024-02-15T02:09:50;10.60;99.90
16247;DHT22;8231;50.866;7.944;2024-02-15T02:12:18;10.70;99.90
16247;DHT22;8231;50.866;7.944;2024-02-15T02:14:47;10.60;99.90
16247;DHT22;8231;50.866;7.944;2024-02-15T02:17:18;10.60;99.90
16247;DHT22;8231;50.866;7.944;2024-02-15T02:19:47;10.60;99.90
16247;DHT22;8231;50.866;7.944;2024-02-15T02:22:18;10.60;99.90
16247;DHT22;8231;50.866;7.944;2024-02-15T02:25:05;10.60;99.90
16247;DHT22;8231;50.866;7.944;2024-02-15T02:27:35;10.60;99.90
16247;DHT22;8231;50.866;7.944;2024-02-15T02:30:05;10.50;99.90
16247;DHT22;8231;50.866;7.944;2024-02-15T02:32:37;10.60;99.90
16247;DHT22;8231;50.866;7.944;2024-02-15T02:35:06;10.50;99.90
16247;DHT22;8231;50.866;7.944;2024-02-15T02:37:34;10.50;99.90
16247;DHT22;8231;50.866;7.944;2024-02-15T02:40:06;10.60;99.90
16247;DHT22;8231;50.866;7.944;2024-02-15T02:42:36;10.50;99.90
16247;DHT22;8231;50.866;7.944;2024-02-15T02:45:05;10.60;99.90
16247;DHT22;8231;50.866;7.944;2024-02-15T02:47:33;10.50;99.90
16247;DHT22;8231;50.866;7.944;2024-02-15T02:50:02;10.50;99.90
16247;DHT22;8231;50.866;7.944;2024-02-15T02:52:30;10.50;99.90
16247;DHT22;8231;50.866;7.944;2024-02-15T02:54:58;10.50;99.90
16247;DHT22;8231;50.866;7.944;2024-02-15T02:57:28;10.50;99.90
16247;DHT22;8231;50.866;7.944;2024-02-15T02:59:58;10.60;99.90
16247;DHT22;8231;50.866;7.944;2024-02-15T03:02:27;10.50;99.90
16247;DHT22;8231;50.866;7.944;2024-02-15T03:04:56;10.70;99.90
16247;DHT22;8231;50.866;7.944;2024-02-15T03:07:27;10.50;99.90
16247;DHT22;8231;50.866;7.944;2024-02-15T03:09:55;10.50;99.90
16247;DHT22;8231;50.866;7.944;2024-02-15T03:12:23;10.50;99.90
16247;DHT22;8231;50.866;7.944;2024-02-15T03:14:55;10.70;99.90
16247;DHT22;8231;50.866;7.944;2024-02-15T03:17:23;10.50;99.90
16247;DHT22;8231;50.866;7.944;2024-02-15T03:19:51;10.50;99.90
16247;DHT22;8231;50.866;7.944;2024-02-15T03:22:20;10.60;99.90
16247;DHT22;8231;50.866;7.944;2024-02-15T03:24:52;10.60;99.90
16247;DHT22;8231;50.866;7.944;2024-02-15T03:27:21;10.40;99.90
16247;DHT22;8231;50.866;7.944;2024-02-15T03:29:50;10.40;99.90
16247;DHT22;8231;50.866;7.944;2024-02-15T03:32:21;10.40;99.90
16247;DHT22;8231;50.866;7.944;2024-02-15T03:34:49;10.30;99.90
16247;DHT22;8231;50.866;7.944;2024-02-15T03:37:18;10.30;99.90
16247;DHT22;8231;50.866;7.944;2024-02-15T03:39:47;10.30;99.90
16247;DHT22;8231;50.866;7.944;2024-02-15T03:42:15;10.30;99.90
16247;DHT22;8231;50.866;7.944;2024-02-15T03:44:43;10.30;99.90
16247;DHT22;8231;50.866;7.944;2024-02-15T03:47:12;10.30;99.90
16247;DHT22;8231;50.866;7.944;2024-02-15T03:49:42;10.40;99.90
16247;DHT22;8231;50.866;7.944;2024-02-15T03:52:10;10.30;99.90
16247;DHT22;8231;50.866;7.944;2024-02-15T03:54:38;10.30;99.90
16247;DHT22;8231;50.866;7.944;2024-02-15T03:57:10;10.30;99.90
16247;DHT22;8231;50.866;7.944;2024-02-15T03:59:39;10.30;99.90
16247;DHT22;8231;50.866;7.944;2024-02-15T04:02:07;10.30;99.90
16247;DHT22;8231;50.866;7.944;2024-02-15T04:04:42;10.20;99.90
16247;DHT22;8231;50.866;7.944;2024-02-15T04:07:14;10.20;99.90
16247;DHT22;8231;50.866;7.944;2024-02-15T04:09:43;10.20;99.90
16247;DHT22;8231;50.866;7.944;2024-02-15T04:12:11;10.20;99.90
16247;DHT22;8231;50.866;7.944;2024-02-15T04:14:41;10.10;99.90
16247;DHT22;8231;50.866;7.944;2024-02-15T04:17:12;10.20;99.90
16247;DHT22;8231;50.866;7.944;2024-02-15T04:19:43;10.10;99.90
16247;DHT22;8231;50.866;7.944;2024-02-15T04:22:13;10.10;99.90
16247;DHT22;8231;50.866;7.944;2024-02-15T04:24:43;10.10;99.90
16247;DHT22;8231;50.866;7.944;2024-02-15T04:27:12;10.10;99.90
16247;DHT22;8231;50.866;7.944;2024-02-15T04:29:41;10.10;99.90
16247;DHT22;8231;50.866;7.944;2024-02-15T04:32:11;10.10;99.90
16247;DHT22;8231;50.866;7.944;2024-02-15T04:34:40;10.10;99.90
16247;DHT22;8231;50.866;7.944;2024-02-15T04:37:09;10.10;99.90
16247;DHT22;8231;50.866;7.944;2024-02-15T04:39:38;10.10;99.90
16247;DHT22;8231;50.866;7.944;2024-02-15T04:42:06;10.10;99.90
16247;DHT22;8231;50.866;7.944;2024-02-15T04:44:38;10.10;99.90
16247;DHT22;8231;50.866;7.944;2024-02-15T04:47:06;10.00;99.90
16247;DHT22;8231;50.866;7.944;2024-02-15T04:49:35;10.00;99.90
16247;DHT22;8231;50.866;7.944;2024-02-15T04:52:05;10.00;99.90
16247;DHT22;8231;50.866;7.944;2024-02-15T04:54:35;10.00;99.90
16247;DHT22;8231;50.866;7.944;2024-02-15T04:57:04;10.00;99.90
16247;DHT22;8231;50.866;7.944;2024-02-15T04:59:35;10.00;99.90
16247;DHT22;8231;50.866;7.944;2024-02-15T05:02:04;10.00;99.90
16247;DHT22;8231;50.866;7.944;2024-02-15T05:04:35;10.00;99.90
16247;DHT22;8231;50.866;7.944;2024-02-15T05:07:03;10.00;99.90
16247;DHT22;8231;50.866;7.944;2024-02-15T05:09:31;10.00;99.90
16247;DHT22;8231;50.866;7.944;2024-02-15T05:12:02;9.90;99.90
16247;DHT22;8231;50.866;7.944;2024-02-15T05:14:31;10.00;99.90
16247;DHT22;8231;50.866;7.944;2024-02-15T05:16:59;10.10;99.90
16247;DHT22;8231;50.866;7.944;2024-02-15T05:19:28;9.90;99.90
16247;DHT22;8231;50.866;7.944;2024-02-15T05:21:57;9.90;99.90
16247;DHT22;8231;50.866;7.944;2024-02-15T05:24:25;9.90;99.90
16247;DHT22;8231;50.866;7.944;2024-02-15T05:26:53;9.90;99.90
16247;DHT22;8231;50.866;7.944;2024-02-15T05:29:23;9.90;99.90
16247;DHT22;8231;50.866;7.944;2024-02-15T05:31:51;9.90;99.90
16247;DHT22;8231;50.866;7.944;2024-02-15T05:34:21;9.80;99.90
16247;DHT22;8231;50.866;7.944;2024-02-15T05:36:49;9.80;99.90
16247;DHT22;8231;50.866;7.944;2024-02-15T05:39:18;9.80;99.90
16247;DHT22;8231;50.866;7.944;2024-02-15T05:41:49;9.70;99.90
16247;DHT22;8231;50.866;7.944;2024-02-15T05:44:17;9.70;99.90
16247;DHT22;8231;50.866;7.944;2024-02-15T05:46:49;9.70;99.90
16247;DHT22;8231;50.866;7.944;2024-02-15T05:49:17;9.70;99.90
16247;DHT22;8231;50.866;7.944;2024-02-15T05:51:46;9.60;99.90
16247;DHT22;8231;50.866;7.944;2024-02-15T05:54:15;9.60;99.90
16247;DHT22;8231;50.866;7.944;2024-02-15T05:56:44;9.80;99.90
16247;DHT22;8231;50.866;7.944;2024-02-15T05:59:19;9.60;99.90
16247;DHT22;8231;50.866;7.944;2024-02-15T06:01:49;9.60;99.90
16247;DHT22;8231;50.866;7.944;2024-02-15T06:04:18;9.60;99.90
16247;DHT22;8231;50.866;7.944;2024-02-15T06:06:46;9.60;99.90
16247;DHT22;8231;50.866;7.944;2024-02-15T06:09:17;9.60;99.90
16247;DHT22;8231;50.866;7.944;2024-02-15T06:11:49;9.50;99.90
16247;DHT22;8231;50.866;7.944;2024-02-15T06:14:18;9.60;99.90
16247;DHT22;8231;50.866;7.944;2024-02-15T06:16:46;9.60;99.90
16247;DHT22;8231;50.866;7.944;2024-02-15T06:19:16;9.60;99.90
16247;DHT22;8231;50.866;7.944;2024-02-15T06:21:44;9.60;99.90
16247;DHT22;8231;50.866;7.944;2024-02-15T06:24:14;9.60;99.90
16247;DHT22;8231;50.866;7.944;2024-02-15T06:26:42;9.60;99.90
16247;DHT22;8231;50.866;7.944;2024-02-15T06:29:14;9.60;99.90
16247;DHT22;8231;50.866;7.944;2024-02-15T06:32:00;9.60;99.90
16247;DHT22;8231;50.866;7.944;2024-02-15T06:34:46;9.60;99.90
16247;DHT22;8231;50.866;7.944;2024-02-15T06:37:35;9.60;99.90
16247;DHT22;8231;50.866;7.944;2024-02-15T06:40:21;9.60;99.90
16247;DHT22;8231;50.866;7.944;2024-02-15T06:42:50;9.60;99.90
16247;DHT22;8231;50.866;7.944;2024-02-15T06:45:18;9.60;99.90
16247;DHT22;8231;50.866;7.944;2024-02-15T06:47:47;9.60;99.90
16247;DHT22;8231;50.866;7.944;2024-02-15T06:50:18;9.90;99.90
16247;DHT22;8231;50.866;7.944;2024-02-15T06:52:46;9.80;99.90
16247;DHT22;8231;50.866;7.944;2024-02-15T06:55:16;9.60;99.90
16247;DHT22;8231;50.866;7.944;2024-02-15T06:57:45;9.60;99.90
16247;DHT22;8231;50.866;7.944;2024-02-15T07:00:14;9.60;99.90
16247;DHT22;8231;50.866;7.944;2024-02-15T07:02:45;9.60;99.90
16247;DHT22;8231;50.866;7.944;2024-02-15T07:05:17;9.70;99.90
16247;DHT22;8231;50.866;7.944;2024-02-15T07:07:45;9.60;99.90
16247;DHT22;8231;50.866;7.944;2024-02-15T07:10:13;9.60;99.90
16247;DHT22;8231;50.866;7.944;2024-02-15T07:12:43;9.60;99.90
16247;DHT22;8231;50.866;7.944;2024-02-15T07:15:12;9.70;99.90
16247;DHT22;8231;50.866;7.944;2024-02-15T07:17:40;9.70;99.90
16247;DHT22;8231;50.866;7.944;2024-02-15T07:20:10;9.70;99.90
16247;DHT22;8231;50.866;7.944;2024-02-15T07:22:42;9.70;99.90
16247;DHT22;8231;50.866;7.944;2024-02-15T07:25:12;9.70;99.90
16247;DHT22;8231;50.866;7.944;2024-02-15T07:27:41;9.70;99.90
16247;DHT22;8231;50.866;7.944;2024-02-15T07:30:10;9.90;99.90
16247;DHT22;8231;50.866;7.944;2024-02-15T07:32:38;9.70;99.90
16247;DHT22;8231;50.866;7.944;2024-02-15T07:35:07;9.70;99.90
16247;DHT22;8231;50.866;7.944;2024-02-15T07:37:36;9.80;99.90
16247;DHT22;8231;50.866;7.944;2024-02-15T07:40:07;10.00;99.90
16247;DHT22;8231;50.866;7.944;2024-02-15T07:42:36;9.80;99.90
16247;DHT22;8231;50.866;7.944;2024-02-15T07:45:04;10.50;99.90
16247;DHT22;8231;50.866;7.944;2024-02-15T07:47:33;9.80;99.90
16247;DHT22;8231;50.866;7.944;2024-02-15T07:50:02;9.90;99.90
16247;DHT22;8231;50.866;7.944;2024-02-15T07:52:32;9.90;99.90
16247;DHT22;8231;50.866;7.944;2024-02-15T07:55:01;9.90;99.90
16247;DHT22;8231;50.866;7.944;2024-02-15T07:57:36;10.10;99.90
16247;DHT22;8231;50.866;7.944;2024-02-15T08:00:06;10.00;99.90
16247;DHT22;8231;50.866;7.944;2024-02-15T08:02:38;10.00;99.90
16247;DHT22;8231;50.866;7.944;2024-02-15T08:05:07;10.10;99.90
16247;DHT22;8231;50.866;7.944;2024-02-15T08:07:38;10.10;99.90
16247;DHT22;8231;50.866;7.944;2024-02-15T08:10:09;10.10;99.90
16247;DHT22;8231;50.866;7.944;2024-02-15T08:12:41;10.10;99.90
16247;DHT22;8231;50.866;7.944;2024-02-15T08:15:10;10.20;99.90
16247;DHT22;8231;50.866;7.944;2024-02-15T08:17:41;10.20;99.90
16247;DHT22;8231;50.866;7.944;2024-02-15T08:20:10;10.30;99.90
16247;DHT22;8231;50.866;7.944;2024-02-15T08:22:39;10.30;99.90
16247;DHT22;8231;50.866;7.944;2024-02-15T08:25:09;10.40;99.90
16247;DHT22;8231;50.866;7.944;2024-02-15T08:27:38;10.60;99.90
16247;DHT22;8231;50.866;7.944;2024-02-15T08:30:12;10.50;99.90
16247;DHT22;8231;50.866;7.944;2024-02-15T08:32:41;10.60;99.90
16247;DHT22;8231;50.866;7.944;2024-02-15T08:35:10;10.80;99.90
16247;DHT22;8231;50.866;7.944;2024-02-15T08:37:39;10.60;99.90
16247;DHT22;8231;50.866;7.944;2024-02-15T08:40:09;10.70;99.90
16247;DHT22;8231;50.866;7.944;2024-02-15T08:42:41;10.70;99.90
16247;DHT22;8231;50.866;7.944;2024-02-15T08:45:11;10.80;99.90
16247;DHT22;8231;50.866;7.944;2024-02-15T08:47:41;10.80;99.90
16247;DHT22;8231;50.866;7.944;2024-02-15T08:50:10;10.80;99.90
16247;DHT22;8231;50.866;7.944;2024-02-15T08:52:39;10.80;99.90
16247;DHT22;8231;50.866;7.944;2024-02-15T08:55:09;10.90;99.90
16247;DHT22;8231;50.866;7.944;2024-02-15T08:57:37;10.90;99.90
16247;DHT22;8231;50.866;7.944;2024-02-15T09:00:08;11.00;99.90
16247;DHT22;8231;50.866;7.944;2024-02-15T09:02:42;11.00;99.90
16247;DHT22;8231;50.866;7.944;2024-02-15T09:05:11;11.00;99.90
16247;DHT22;8231;50.866;7.944;2024-02-15T09:07:42;11.10;99.90
16247;DHT22;8231;50.866;7.944;2024-02-15T09:10:10;11.20;99.90
16247;DHT22;8231;50.866;7.944;2024-02-15T09:12:39;11.80;99.90
16247;DHT22;8231;50.866;7.944;2024-02-15T09:15:08;11.40;99.90
16247;DHT22;8231;50.866;7.944;2024-02-15T09:17:37;11.50;99.90
16247;DHT22;8231;50.866;7.944;2024-02-15T09:20:09;11.80;99.90
16247;DHT22;8231;50.866;7.944;2024-02-15T09:22:42;11.70;99.90
16247;DHT22;8231;50.866;7.944;2024-02-15T09:25:11;11.80;99.90
16247;DHT22;8231;50.866;7.944;2024-02-15T09:27:40;12.00;99.90
16247;DHT22;8231;50.866;7.944;2024-02-15T09:30:08;12.00;99.90
16247;DHT22;8231;50.866;7.944;2024-02-15T09:32:37;12.00;99.90
16247;DHT22;8231;50.866;7.944;2024-02-15T09:35:08;12.10;99.90
16247;DHT22;8231;50.866;7.944;2024-02-15T09:37:44;12.00;99.90
16247;DHT22;8231;50.866;7.944;2024-02-15T09:40:13;12.00;99.90
16247;DHT22;8231;50.866;7.944;2024-02-15T09:42:43;12.00;99.90
16247;DHT22;8231;50.866;7.944;2024-02-15T09:45:13;12.00;99.90
16247;DHT22;8231;50.866;7.944;2024-02-15T09:47:42;12.00;99.90
16247;DHT22;8231;50.866;7.944;2024-02-15T09:50:13;12.10;99.90
16247;DHT22;8231;50.866;7.944;2024-02-15T09:52:44;12.10;99.90
16247;DHT22;8231;50.866;7.944;2024-02-15T09:55:14;12.20;99.90
16247;DHT22;8231;50.866;7.944;2024-02-15T09:57:43;12.10;99.90
16247;DHT22;8231;50.866;7.944;2024-02-15T10:00:14;12.10;99.90
16247;DHT22;8231;50.866;7.944;2024-02-15T10:02:48;12.10;99.90
16247;DHT22;8231;50.866;7.944;2024-02-15T10:05:17;12.00;99.90
16247;DHT22;8231;50.866;7.944;2024-02-15T10:07:46;12.10;99.90
16247;DHT22;8231;50.866;7.944;2024-02-15T10:10:15;12.20;99.90
16247;DHT22;8231;50.866;7.944;2024-02-15T10:12:45;12.20;99.90
16247;DHT22;8231;50.866;7.944;2024-02-15T10:15:27;12.40;99.90
16247;DHT22;8231;50.866;7.944;2024-02-15T10:18:00;12.40;99.90
16247;DHT22;8231;50.866;7.944;2024-02-15T10:20:30;12.60;99.90
16247;DHT22;8231;50.866;7.944;2024-02-15T10:23:11;12.70;99.90
16247;DHT22;8231;50.866;7.944;2024-02-15T10:25:40;12.90;99.90
16247;DHT22;8231;50.866;7.944;2024-02-15T10:28:10;13.10;99.90
16247;DHT22;8231;50.866;7.944;2024-02-15T10:30:39;13.20;99.90
16247;DHT22;8231;50.866;7.944;2024-02-15T10:33:10;13.40;99.90
16247;DHT22;8231;50.866;7.944;2024-02-15T10:35:47;13.60;99.90
16247;DHT22;8231;50.866;7.944;2024-02-15T10:38:15;13.70;99.90
16247;DHT22;8231;50.866;7.944;2024-02-15T10:40:46;13.70;99.90
16247;DHT22;8231;50.866;7.944;2024-02-15T10:43:16;13.80;99.90
16247;DHT22;8231;50.866;7.944;2024-02-15T10:45:44;14.00;99.90
16247;DHT22;8231;50.866;7.944;2024-02-15T10:48:13;14.20;99.90
16247;DHT22;8231;50.866;7.944;2024-02-15T10:50:41;14.40;99.90
16247;DHT22;8231;50.866;7.944;2024-02-15T10:53:21;14.40;99.90
16247;DHT22;8231;50.866;7.944;2024-02-15T10:55:56;14.50;99.90
16247;DHT22;8231;50.866;7.944;2024-02-15T10:58:29;14.60;99.90
16247;DHT22;8231;50.866;7.944;2024-02-15T11:01:06;14.70;99.90
16247;DHT22;8231;50.866;7.944;2024-02-15T11:03:41;14.80;99.90
16247;DHT22;8231;50.866;7.944;2024-02-15T11:06:15;14.90;99.90
16247;DHT22;8231;50.866;7.944;2024-02-15T11:08:45;14.90;99.90
16247;DHT22;8231;50.866;7.944;2024-02-15T11:11:15;15.00;99.90
16247;DHT22;8231;50.866;7.944;2024-02-15T11:13:43;15.20;99.90
16247;DHT22;8231;50.866;7.944;2024-02-15T11:16:41;15.20;99.90
16247;DHT22;8231;50.866;7.944;2024-02-15T11:19:09;15.20;99.90
16247;DHT22;8231;50.866;7.944;2024-02-15T11:21:53;15.20;99.90
16247;DHT22;8231;50.866;7.944;2024-02-15T11:24:28;15.30;99.90
16247;DHT22;8231;50.866;7.944;2024-02-15T11:26:59;15.30;99.90
16247;DHT22;8231;50.866;7.944;2024-02-15T11:29:48;15.30;99.90
16247;DHT22;8231;50.866;7.944;2024-02-15T11:32:37;15.30;99.90
16247;DHT22;8231;50.866;7.944;2024-02-15T11:35:07;15.30;99.90
16247;DHT22;8231;50.866;7.944;2024-02-15T11:37:58;15.40;99.90
16247;DHT22;8231;50.866;7.944;2024-02-15T11:41:01;15.40;99.90
16247;DHT22;8231;50.866;7.944;2024-02-15T11:43:49;15.40;99.90
16247;DHT22;8231;50.866;7.944;2024-02-15T11:46:23;15.50;99.90
16247;DHT22;8231;50.866;7.944;2024-02-15T11:48:58;15.50;99.90
16247;DHT22;8231;50.866;7.944;2024-02-15T11:51:30;15.50;99.90
16247;DHT22;8231;50.866;7.944;2024-02-15T11:54:02;15.60;99.90
16247;DHT22;8231;50.866;7.944;2024-02-15T11:56:49;15.70;99.90
16247;DHT22;8231;50.866;7.944;2024-02-15T11:59:38;15.70;99.90
16247;DHT22;8231;50.866;7.944;2024-02-15T12:02:20;15.70;99.90
16247;DHT22;8231;50.866;7.944;2024-02-15T12:05:06;15.70;99.90
16247;DHT22;8231;50.866;7.944;2024-02-15T12:07:53;15.70;99.90
16247;DHT22;8231;50.866;7.944;2024-02-15T12:10:38;15.80;99.90
16247;DHT22;8231;50.866;7.944;2024-02-15T12:13:25;16.00;99.90
16247;DHT22;8231;50.866;7.944;2024-02-15T12:16:15;16.10;99.90
16247;DHT22;8231;50.866;7.944;2024-02-15T12:19:01;16.20;99.90
16247;DHT22;8231;50.866;7.944;2024-02-15T12:21:30;16.30;99.90
16247;DHT22;8231;50.866;7.944;2024-02-15T12:24:01;16.30;99.90
16247;DHT22;8231;50.866;7.944;2024-02-15T12:26:33;16.40;99.90
16247;DHT22;8231;50.866;7.944;2024-02-15T12:29:03;16.50;99.90
16247;DHT22;8231;50.866;7.944;2024-02-15T12:31:35;16.50;99.90
16247;DHT22;8231;50.866;7.944;2024-02-15T12:34:05;16.60;99.90
16247;DHT22;8231;50.866;7.944;2024-02-15T12:36:35;17.10;99.90
16247;DHT22;8231;50.866;7.944;2024-02-15T12:39:06;16.80;99.90
16247;DHT22;8231;50.866;7.944;2024-02-15T12:41:39;16.80;99.90
16247;DHT22;8231;50.866;7.944;2024-02-15T12:44:10;16.80;99.90
16247;DHT22;8231;50.866;7.944;2024-02-15T12:46:38;16.80;99.90
16247;DHT22;8231;50.866;7.944;2024-02-15T12:49:09;16.80;99.90
16247;DHT22;8231;50.866;7.944;2024-02-15T12:51:50;16.70;99.90
16247;DHT22;8231;50.866;7.944;2024-02-15T12:54:19;16.70;99.90
16247;DHT22;8231;50.866;7.944;2024-02-15T12:56:48;16.70;99.90
16247;DHT22;8231;50.866;7.944;2024-02-15T12:59:20;16.60;99.90
16247;DHT22;8231;50.866;7.944;2024-02-15T13:01:48;16.70;99.90
16247;DHT22;8231;50.866;7.944;2024-02-15T13:04:23;16.80;99.90
16247;DHT22;8231;50.866;7.944;2024-02-15T13:06:51;17.20;99.90
16247;DHT22;8231;50.866;7.944;2024-02-15T13:09:19;17.00;99.90
16247;DHT22;8231;50.866;7.944;2024-02-15T13:11:49;17.00;99.90
16247;DHT22;8231;50.866;7.944;2024-02-15T13:14:17;17.00;99.90
16247;DHT22;8231;50.866;7.944;2024-02-15T13:16:48;16.90;99.90
16247;DHT22;8231;50.866;7.944;2024-02-15T13:19:16;16.90;99.90
16247;DHT22;8231;50.866;7.944;2024-02-15T13:21:45;16.90;99.90
16247;DHT22;8231;50.866;7.944;2024-02-15T13:24:20;16.80;99.90
16247;DHT22;8231;50.866;7.944;2024-02-15T13:26:53;16.90;99.90
16247;DHT22;8231;50.866;7.944;2024-02-15T13:29:25;16.80;99.90
16247;DHT22;8231;50.866;7.944;2024-02-15T13:31:55;16.90;99.90
16247;DHT22;8231;50.866;7.944;2024-02-15T13:34:23;16.80;99.90
16247;DHT22;8231;50.866;7.944;2024-02-15T13:36:51;16.80;99.90
16247;DHT22;8231;50.866;7.944;2024-02-15T13:39:21;16.60;99.90
16247;DHT22;8231;50.866;7.944;2024-02-15T13:41:49;16.70;99.90
16247;DHT22;8231;50.866;7.944;2024-02-15T13:44:19;16.60;99.90
16247;DHT22;8231;50.866;7.944;2024-02-15T13:46:47;16.60;99.90
16247;DHT22;8231;50.866;7.944;2024-02-15T13:49:18;16.50;99.90
16247;DHT22;8231;50.866;7.944;2024-02-15T13:51:58;16.40;99.90
16247;DHT22;8231;50.866;7.944;2024-02-15T13:54:30;16.40;99.90
16247;DHT22;8231;50.866;7.944;2024-02-15T13:56:58;16.30;99.90
16247;DHT22;8231;50.866;7.944;2024-02-15T13:59:26;16.30;99.90
16247;DHT22;8231;50.866;7.944;2024-02-15T14:01:55;16.30;99.90
16247;DHT22;8231;50.866;7.944;2024-02-15T14:04:25;16.30;99.90
16247;DHT22;8231;50.866;7.944;2024-02-15T14:06:53;16.20;99.90
16247;DHT22;8231;50.866;7.944;2024-02-15T14:09:23;16.40;99.90
16247;DHT22;8231;50.866;7.944;2024-02-15T14:11:53;16.20;99.90
16247;DHT22;8231;50.866;7.944;2024-02-15T14:14:21;16.00;99.90
16247;DHT22;8231;50.866;7.944;2024-02-15T14:16:49;15.90;99.90
16247;DHT22;8231;50.866;7.944;2024-02-15T14:19:17;15.80;99.90
16247;DHT22;8231;50.866;7.944;2024-02-15T14:21:46;15.80;99.90
16247;DHT22;8231;50.866;7.944;2024-02-15T14:24:14;15.60;99.90
16247;DHT22;8231;50.866;7.944;2024-02-15T14:26:46;15.60;99.90
16247;DHT22;8231;50.866;7.944;2024-02-15T14:29:14;15.50;99.90
16247;DHT22;8231;50.866;7.944;2024-02-15T14:31:47;15.50;99.90
16247;DHT22;8231;50.866;7.944;2024-02-15T14:34:32;15.40;99.90
16247;DHT22;8231;50.866;7.944;2024-02-15T14:37:04;15.40;99.90
16247;DHT22;8231;50.866;7.944;2024-02-15T14:39:33;15.30;99.90
16247;DHT22;8231;50.866;7.944;2024-02-15T14:42:01;15.20;99.90
16247;DHT22;8231;50.866;7.944;2024-02-15T14:44:44;15.10;99.90
16247;DHT22;8231;50.866;7.944;2024-02-15T14:47:12;15.00;99.90
16247;DHT22;8231;50.866;7.944;2024-02-15T14:49:41;15.20;99.90
16247;DHT22;8231;50.866;7.944;2024-02-15T14:52:10;14.90;99.90
16247;DHT22;8231;50.866;7.944;2024-02-15T14:54:39;14.90;99.90
16247;DHT22;8231;50.866;7.944;2024-02-15T14:57:07;14.80;99.90
16247;DHT22;8231;50.866;7.944;2024-02-15T14:59:36;14.70;99.90
16247;DHT22;8231;50.866;7.944;2024-02-15T15:02:05;14.60;99.90
16247;DHT22;8231;50.866;7.944;2024-02-15T15:04:38;14.60;99.90
16247;DHT22;8231;50.866;7.944;2024-02-15T15:07:36;14.40;99.90
16247;DHT22;8231;50.866;7.944;2024-02-15T15:10:22;14.40;99.90
16247;DHT22;8231;50.866;7.944;2024-02-15T15:13:07;14.40;99.90
16247;DHT22;8231;50.866;7.944;2024-02-15T15:15:36;14.60;99.90
16247;DHT22;8231;50.866;7.944;2024-02-15T15:18:06;14.40;99.90
16247;DHT22;8231;50.866;7.944;2024-02-15T15:20:36;14.30;99.90
16247;DHT22;8231;50.866;7.944;2024-02-15T15:23:06;14.40;99.90
16247;DHT22;8231;50.866;7.944;2024-02-15T15:25:34;14.40;99.90
16247;DHT22;8231;50.866;7.944;2024-02-15T15:28:04;14.40;99.90
16247;DHT22;8231;50.866;7.944;2024-02-15T15:30:33;14.30;99.90
16247;DHT22;8231;50.866;7.944;2024-02-15T15:33:01;14.30;99.90
16247;DHT22;8231;50.866;7.944;2024-02-15T15:35:30;14.30;99.90
16247;DHT22;8231;50.866;7.944;2024-02-15T15:38:00;14.50;99.90
16247;DHT22;8231;50.866;7.944;2024-02-15T15:40:30;14.30;99.90
16247;DHT22;8231;50.866;7.944;2024-02-15T15:42:59;14.20;99.90
16247;DHT22;8231;50.866;7.944;2024-02-15T15:45:27;14.30;99.90
16247;DHT22;8231;50.866;7.944;2024-02-15T15:47:55;14.20;99.90
16247;DHT22;8231;50.866;7.944;2024-02-15T15:50:24;14.20;99.90
16247;DHT22;8231;50.866;7.944;2024-02-15T15:52:52;14.20;99.90
16247;DHT22;8231;50.866;7.944;2024-02-15T15:55:21;14.00;99.90
16247;DHT22;8231;50.866;7.944;2024-02-15T15:57:52;13.90;99.90
16247;DHT22;8231;50.866;7.944;2024-02-15T16:00:20;13.80;99.90
16247;DHT22;8231;50.866;7.944;2024-02-15T16:02:50;13.80;99.90
16247;DHT22;8231;50.866;7.944;2024-02-15T16:05:20;13.70;99.90
16247;DHT22;8231;50.866;7.944;2024-02-15T16:07:48;13.60;99.90
16247;DHT22;8231;50.866;7.944;2024-02-15T16:10:17;13.60;99.90